Aviation Digital Data Service (ADDS)

Output produced by METARs form (0345 UTC 22 November 2017)
found at http://aviationweather.gov/adds/metars/
 
KCLL 220307Z 2203/2224 31009KT P6SM SKC 
     FM221100 36013G23KT P6SM SKC 
     FM221700 35015KT P6SM SKC